createdAt,value
2022-12-29T00:00:36.104Z,73.46
2022-12-29T00:01:38.469Z,72.67
2022-12-29T00:02:41.217Z,72.87
2022-12-29T00:03:42.990Z,73.00
2022-12-29T00:04:45.598Z,73.46
2022-12-29T00:05:55.855Z,73.12
2022-12-29T00:07:05.485Z,72.77
2022-12-29T00:08:07.022Z,72.69
2022-12-29T00:09:09.606Z,72.88
2022-12-29T00:10:15.350Z,73.04
2022-12-29T00:11:23.707Z,72.90
2022-12-29T00:12:46.419Z,73.42
2022-12-29T00:14:06.880Z,74.21
2022-12-29T00:15:27.981Z,73.98
2022-12-29T00:16:30.252Z,74.11
2022-12-29T00:17:32.944Z,74.15
2022-12-29T00:18:34.536Z,73.92
2022-12-29T00:19:54.884Z,73.96
2022-12-29T00:21:15.351Z,73.50
2022-12-29T00:22:40.364Z,73.18
2022-12-29T00:24:00.481Z,73.10
2022-12-29T00:25:20.500Z,72.70
2022-12-29T00:26:40.906Z,73.24
2022-12-29T00:28:07.437Z,73.36
2022-12-29T00:29:28.392Z,73.77
2022-12-29T00:30:48.787Z,73.55
2022-12-29T00:32:08.920Z,73.37
2022-12-29T00:33:30.451Z,73.42
2022-12-29T00:34:50.391Z,73.65
2022-12-29T00:35:56.552Z,74.73
2022-12-29T00:36:58.418Z,75.15
2022-12-29T00:38:23.243Z,74.54
2022-12-29T00:39:43.385Z,73.95
2022-12-29T00:41:03.655Z,73.38
2022-12-29T00:42:23.758Z,73.83
2022-12-29T00:43:43.774Z,73.69
2022-12-29T00:44:46.295Z,73.43
2022-12-29T00:45:48.086Z,73.26
2022-12-29T00:46:50.831Z,73.12
2022-12-29T00:47:52.314Z,73.32
2022-12-29T00:49:12.251Z,73.73
2022-12-29T00:50:14.781Z,74.22
2022-12-29T00:51:16.429Z,74.83
2022-12-29T00:52:21.943Z,75.43
2022-12-29T00:53:24.820Z,75.46
2022-12-29T00:54:27.626Z,75.81
2022-12-29T00:55:29.142Z,75.50
2022-12-29T00:56:31.918Z,75.56
2022-12-29T00:57:34.348Z,75.51
2022-12-29T00:58:37.896Z,75.56
2022-12-29T00:59:41.934Z,75.69
2022-12-29T01:00:43.473Z,75.96
2022-12-29T01:01:46.974Z,76.13
2022-12-29T01:02:48.826Z,75.69
2022-12-29T01:03:57.425Z,75.47
2022-12-29T01:05:04.755Z,75.42
2022-12-29T01:06:10.378Z,75.70
2022-12-29T01:07:12.889Z,76.20
2022-12-29T01:08:14.460Z,76.29
2022-12-29T01:09:37.041Z,76.07
2022-12-29T01:10:39.561Z,75.52
2022-12-29T01:11:41.116Z,75.09
2022-12-29T01:12:45.707Z,75.18
2022-12-29T01:13:47.497Z,75.56
2022-12-29T01:14:49.992Z,75.57
2022-12-29T01:15:52.140Z,75.50
2022-12-29T01:16:55.153Z,75.39
2022-12-29T01:17:56.775Z,75.57
2022-12-29T01:18:59.972Z,75.41
2022-12-29T01:20:02.047Z,75.15
2022-12-29T01:21:06.455Z,75.35
2022-12-29T01:22:08.603Z,75.46
2022-12-29T01:23:11.077Z,75.73
2022-12-29T01:24:12.817Z,76.33
2022-12-29T01:25:16.651Z,76.22
2022-12-29T01:26:19.778Z,76.28
2022-12-29T01:27:22.244Z,76.40
2022-12-29T01:28:26.079Z,76.12
2022-12-29T01:29:28.973Z,76.01
2022-12-29T01:30:33.382Z,75.88
2022-12-29T01:31:35.932Z,75.65
2022-12-29T01:32:37.505Z,76.04
2022-12-29T01:33:40.782Z,75.26
2022-12-29T01:34:42.370Z,74.80
2022-12-29T01:35:45.127Z,74.72
2022-12-29T01:36:48.881Z,74.39
2022-12-29T01:37:51.367Z,74.42
2022-12-29T01:38:53.204Z,74.65
2022-12-29T01:39:56.067Z,75.06
2022-12-29T01:40:59.087Z,74.91
2022-12-29T01:42:01.601Z,75.03
2022-12-29T01:43:03.105Z,75.34
2022-12-29T01:44:38.947Z,74.50
2022-12-29T01:45:46.157Z,74.20
2022-12-29T01:46:50.158Z,74.10
2022-12-29T01:47:56.851Z,73.74
2022-12-29T01:49:05.930Z,73.79
2022-12-29T01:50:18.450Z,74.85
2022-12-29T01:51:22.513Z,74.80
2022-12-29T01:52:27.579Z,75.21
2022-12-29T01:53:35.266Z,74.62
2022-12-29T01:54:44.156Z,74.80
2022-12-29T01:55:50.998Z,75.04
2022-12-29T01:56:57.265Z,75.24
2022-12-29T01:58:04.262Z,75.44
2022-12-29T01:59:14.207Z,75.97
2022-12-29T02:00:16.596Z,76.13
2022-12-29T02:01:22.018Z,75.39
2022-12-29T02:02:25.281Z,74.71
2022-12-29T02:03:31.515Z,74.51
2022-12-29T02:04:34.198Z,75.97
2022-12-29T02:05:43.995Z,76.77
2022-12-29T02:06:50.987Z,76.55
2022-12-29T02:07:54.964Z,76.19
2022-12-29T02:08:57.721Z,76.01
2022-12-29T02:10:01.924Z,76.45
2022-12-29T02:11:04.283Z,76.83
2022-12-29T02:12:09.219Z,76.82
2022-12-29T02:13:10.858Z,76.78
2022-12-29T02:14:15.441Z,76.64
2022-12-29T02:15:18.166Z,76.45
2022-12-29T02:16:37.943Z,76.21
2022-12-29T02:17:57.352Z,76.40
2022-12-29T02:19:20.950Z,76.22
2022-12-29T02:20:49.881Z,75.00
2022-12-29T02:22:12.306Z,74.80
2022-12-29T02:23:33.512Z,74.62
2022-12-29T02:25:03.408Z,73.69
2022-12-29T02:26:23.762Z,74.06
2022-12-29T02:27:50.827Z,73.81
2022-12-29T02:29:23.793Z,73.59
2022-12-29T02:30:52.297Z,73.41
2022-12-29T02:31:59.832Z,73.82
2022-12-29T02:33:14.927Z,74.82
2022-12-29T02:34:27.640Z,75.44
2022-12-29T02:35:38.765Z,76.07
2022-12-29T02:36:45.981Z,75.62
2022-12-29T02:37:57.227Z,75.16
2022-12-29T02:39:06.616Z,75.56
2022-12-29T02:40:18.659Z,75.22
2022-12-29T02:41:25.731Z,75.13
2022-12-29T02:42:37.380Z,75.93
2022-12-29T02:43:46.018Z,75.85
2022-12-29T02:44:56.273Z,76.23
2022-12-29T02:46:05.926Z,75.64
2022-12-29T02:47:15.002Z,75.61
2022-12-29T02:48:23.390Z,75.96
2022-12-29T02:49:33.349Z,76.36
2022-12-29T02:50:40.627Z,78.63
2022-12-29T02:51:51.408Z,78.34
2022-12-29T02:52:56.916Z,77.79
2022-12-29T02:54:17.785Z,77.28
2022-12-29T02:55:19.929Z,77.77
2022-12-29T02:56:21.969Z,77.49
2022-12-29T02:57:33.056Z,77.37
2022-12-29T02:58:35.159Z,77.19
2022-12-29T02:59:38.227Z,77.11
2022-12-29T03:00:50.430Z,78.13
2022-12-29T03:02:19.255Z,78.92
2022-12-29T03:03:32.081Z,79.13
2022-12-29T03:04:43.628Z,78.94
2022-12-29T03:06:05.259Z,78.36
2022-12-29T03:07:17.676Z,78.43
2022-12-29T03:08:29.293Z,78.25
2022-12-29T03:09:41.929Z,78.16
2022-12-29T03:10:53.116Z,77.94
2022-12-29T03:12:09.385Z,78.03
2022-12-29T03:13:36.413Z,77.81
2022-12-29T03:15:08.845Z,77.47
2022-12-29T03:16:22.221Z,78.05
2022-12-29T03:17:30.778Z,77.98
2022-12-29T03:18:54.651Z,77.58
2022-12-29T03:20:03.003Z,77.53
2022-12-29T03:21:10.021Z,77.33
2022-12-29T03:22:28.110Z,77.84
2022-12-29T03:23:32.506Z,77.95
2022-12-29T03:24:38.611Z,77.70
2022-12-29T03:25:45.641Z,77.89
2022-12-29T03:26:48.559Z,77.96
2022-12-29T03:27:55.313Z,77.74
2022-12-29T03:28:58.402Z,77.69
2022-12-29T03:30:04.955Z,77.30
2022-12-29T03:31:09.216Z,77.63
2022-12-29T03:32:15.011Z,77.26
2022-12-29T03:33:21.552Z,77.67
2022-12-29T03:34:26.225Z,77.74
2022-12-29T03:35:32.926Z,78.12
2022-12-29T03:36:44.394Z,78.74
2022-12-29T03:37:53.786Z,78.79
2022-12-29T03:39:01.252Z,78.40
2022-12-29T03:40:03.128Z,78.42
2022-12-29T03:41:09.607Z,78.39
2022-12-29T03:42:16.465Z,78.43
2022-12-29T03:43:21.444Z,78.42
2022-12-29T03:44:33.219Z,78.75
2022-12-29T03:45:35.718Z,78.98
2022-12-29T03:46:37.281Z,79.32
2022-12-29T03:47:39.832Z,79.12
2022-12-29T03:48:42.802Z,78.87
2022-12-29T03:49:45.233Z,78.98
2022-12-29T03:50:46.807Z,79.15
2022-12-29T03:51:51.919Z,78.74
2022-12-29T03:52:53.589Z,78.54
2022-12-29T03:53:56.085Z,78.35
2022-12-29T03:54:57.623Z,77.67
2022-12-29T03:56:00.104Z,78.08
2022-12-29T03:57:01.694Z,79.02
2022-12-29T03:58:04.233Z,79.15
2022-12-29T03:59:05.735Z,78.76
2022-12-29T04:00:09.802Z,78.76
2022-12-29T04:01:11.603Z,78.30
2022-12-29T04:02:14.403Z,78.46
2022-12-29T04:03:16.184Z,78.65
2022-12-29T04:04:22.423Z,78.54
2022-12-29T04:05:24.228Z,78.53
2022-12-29T04:06:26.684Z,78.20
2022-12-29T04:07:28.220Z,78.16
2022-12-29T04:08:30.641Z,78.29
2022-12-29T04:09:32.274Z,79.11
2022-12-29T04:10:34.787Z,79.53
2022-12-29T04:11:36.340Z,79.87
2022-12-29T04:12:38.886Z,80.06
2022-12-29T04:13:41.963Z,80.18
2022-12-29T04:14:44.579Z,79.94
2022-12-29T04:15:46.533Z,80.81
2022-12-29T04:16:49.064Z,81.40
2022-12-29T04:17:50.924Z,81.37
2022-12-29T04:18:53.417Z,80.95
2022-12-29T04:20:16.581Z,81.02
2022-12-29T04:21:19.457Z,81.19
2022-12-29T04:22:21.111Z,81.45
2022-12-29T04:23:23.636Z,81.82
2022-12-29T04:24:25.213Z,81.71
2022-12-29T04:25:27.784Z,81.81
2022-12-29T04:26:29.305Z,81.36
2022-12-29T04:27:31.836Z,80.33
2022-12-29T04:28:34.318Z,80.38
2022-12-29T04:29:37.093Z,80.42
2022-12-29T04:30:38.618Z,81.05
2022-12-29T04:31:41.244Z,80.87
2022-12-29T04:32:42.924Z,81.52
2022-12-29T04:33:45.571Z,81.87
2022-12-29T04:34:47.163Z,82.29
2022-12-29T04:35:54.033Z,82.76
2022-12-29T04:36:55.768Z,82.62
2022-12-29T04:37:58.192Z,82.35
2022-12-29T04:38:59.801Z,82.46
2022-12-29T04:40:02.274Z,82.35
2022-12-29T04:41:03.843Z,82.04
2022-12-29T04:42:06.521Z,82.36
2022-12-29T04:43:08.709Z,82.18
2022-12-29T04:44:11.260Z,82.79
2022-12-29T04:45:12.889Z,83.40
2022-12-29T04:46:15.395Z,83.30
2022-12-29T04:47:16.920Z,83.15
2022-12-29T04:48:19.433Z,82.97
2022-12-29T04:49:20.943Z,83.56
2022-12-29T04:50:23.677Z,83.25
2022-12-29T04:51:26.689Z,83.13
2022-12-29T04:52:29.193Z,83.42
2022-12-29T04:53:30.668Z,83.67
2022-12-29T04:54:33.096Z,83.49
2022-12-29T04:55:35.583Z,84.39
2022-12-29T04:56:37.085Z,83.82
2022-12-29T04:57:39.524Z,83.49
2022-12-29T04:58:41.041Z,83.53
2022-12-29T04:59:43.517Z,84.10
2022-12-29T05:00:45.046Z,84.72
2022-12-29T05:01:47.616Z,84.44
2022-12-29T05:02:49.361Z,84.79
2022-12-29T05:03:52.962Z,84.82
2022-12-29T05:04:54.524Z,84.54
2022-12-29T05:05:58.243Z,84.89
2022-12-29T05:07:03.356Z,84.79
2022-12-29T05:08:06.560Z,84.85
2022-12-29T05:09:08.069Z,84.46
2022-12-29T05:10:11.048Z,84.93
2022-12-29T05:11:12.634Z,84.67
2022-12-29T05:12:15.459Z,84.72
2022-12-29T05:13:20.440Z,84.04
2022-12-29T05:14:22.693Z,83.95
2022-12-29T05:15:25.291Z,84.32
2022-12-29T05:16:26.842Z,84.59
2022-12-29T05:17:29.352Z,84.05
2022-12-29T05:18:30.846Z,84.16
2022-12-29T05:19:33.303Z,84.14
2022-12-29T05:20:35.178Z,84.04
2022-12-29T05:21:37.633Z,84.03
2022-12-29T05:22:40.526Z,84.43
2022-12-29T05:23:42.993Z,85.17
2022-12-29T05:24:44.529Z,85.38
2022-12-29T05:25:47.434Z,85.33
2022-12-29T05:26:49.000Z,85.60
2022-12-29T05:27:51.445Z,84.97
2022-12-29T05:28:53.039Z,84.82
2022-12-29T05:29:55.572Z,84.85
2022-12-29T05:30:57.150Z,84.79
2022-12-29T05:31:59.673Z,84.51
2022-12-29T05:33:01.224Z,84.71
2022-12-29T05:34:03.728Z,84.51
2022-12-29T05:35:06.323Z,84.46
2022-12-29T05:36:10.897Z,84.86
2022-12-29T05:37:14.785Z,84.65
2022-12-29T05:38:18.830Z,84.42
2022-12-29T05:39:20.350Z,84.87
2022-12-29T05:40:23.157Z,84.55
2022-12-29T05:41:24.847Z,85.07
2022-12-29T05:42:27.470Z,85.25
2022-12-29T05:43:29.025Z,85.65
2022-12-29T05:44:31.516Z,85.70
2022-12-29T05:45:33.099Z,85.31
2022-12-29T05:46:35.653Z,85.59
2022-12-29T05:47:37.237Z,86.30
2022-12-29T05:48:39.727Z,86.63
2022-12-29T05:49:41.281Z,86.43
2022-12-29T05:50:43.781Z,86.42
2022-12-29T05:51:45.387Z,86.76
2022-12-29T05:52:47.986Z,87.48
2022-12-29T05:53:51.126Z,87.21
2022-12-29T05:54:54.214Z,87.00
2022-12-29T05:55:55.735Z,86.76
2022-12-29T05:56:58.217Z,86.84
2022-12-29T05:57:59.695Z,87.14
2022-12-29T05:59:02.247Z,87.17
2022-12-29T06:00:04.136Z,87.17
2022-12-29T06:01:07.262Z,87.55
2022-12-29T06:02:08.958Z,87.13
2022-12-29T06:03:11.734Z,86.78
2022-12-29T06:04:14.347Z,86.91
2022-12-29T06:05:16.049Z,86.68
2022-12-29T06:06:18.612Z,87.11
2022-12-29T06:07:20.186Z,86.63
2022-12-29T06:08:22.758Z,86.72
2022-12-29T06:09:25.733Z,86.85
2022-12-29T06:10:28.365Z,86.51
2022-12-29T06:11:29.953Z,85.98
2022-12-29T06:12:32.603Z,85.48
2022-12-29T06:13:34.357Z,85.87
2022-12-29T06:14:36.821Z,86.41
2022-12-29T06:15:38.393Z,86.38
2022-12-29T06:16:40.918Z,86.04
2022-12-29T06:17:42.441Z,85.77
2022-12-29T06:18:44.906Z,85.93
2022-12-29T06:19:46.436Z,85.53
2022-12-29T06:20:49.456Z,85.11
2022-12-29T06:21:52.234Z,85.00
2022-12-29T06:22:53.814Z,85.05
2022-12-29T06:23:56.258Z,85.31
2022-12-29T06:25:04.539Z,85.07
2022-12-29T06:26:07.776Z,85.25
2022-12-29T06:27:09.364Z,85.76
2022-12-29T06:28:12.840Z,85.78
2022-12-29T06:29:18.045Z,85.70
2022-12-29T06:30:20.616Z,85.32
2022-12-29T06:31:23.088Z,85.64
2022-12-29T06:32:25.920Z,85.05
2022-12-29T06:33:27.822Z,85.88
2022-12-29T06:34:30.786Z,84.97
2022-12-29T06:35:32.480Z,84.99
2022-12-29T06:36:35.264Z,85.20
2022-12-29T06:37:36.973Z,85.70
2022-12-29T06:38:39.683Z,84.96
2022-12-29T06:39:41.510Z,85.42
2022-12-29T06:40:46.065Z,84.84
2022-12-29T06:41:48.919Z,85.79
2022-12-29T06:42:50.636Z,86.07
2022-12-29T06:43:53.251Z,86.12
2022-12-29T06:44:55.038Z,86.28
2022-12-29T06:45:57.644Z,85.91
2022-12-29T06:46:59.262Z,86.21
2022-12-29T06:48:01.766Z,86.25
2022-12-29T06:49:03.404Z,86.24
2022-12-29T06:50:06.809Z,86.06
2022-12-29T06:51:08.619Z,86.54
2022-12-29T06:52:13.249Z,86.95
2022-12-29T06:53:16.805Z,86.95
2022-12-29T06:54:18.427Z,87.11
2022-12-29T06:55:22.253Z,86.89
2022-12-29T06:56:25.486Z,86.92
2022-12-29T06:57:28.170Z,86.98
2022-12-29T06:58:30.658Z,87.06
2022-12-29T06:59:32.175Z,86.60
2022-12-29T07:00:34.818Z,86.90
2022-12-29T07:01:37.010Z,87.60
2022-12-29T07:02:39.907Z,87.35
2022-12-29T07:03:42.471Z,87.84
2022-12-29T07:04:44.981Z,87.35
2022-12-29T07:05:46.577Z,87.24
2022-12-29T07:06:49.098Z,87.37
2022-12-29T07:07:50.624Z,87.40
2022-12-29T07:08:55.939Z,87.81
2022-12-29T07:09:57.466Z,88.26
2022-12-29T07:10:59.940Z,88.38
2022-12-29T07:12:02.931Z,88.66
2022-12-29T07:13:05.465Z,88.55
2022-12-29T07:14:07.013Z,88.82
2022-12-29T07:15:10.162Z,88.79
2022-12-29T07:16:12.183Z,88.77
2022-12-29T07:17:14.701Z,88.42
2022-12-29T07:18:16.282Z,88.20
2022-12-29T07:19:19.912Z,88.05
2022-12-29T07:20:26.460Z,88.16
2022-12-29T07:21:29.424Z,88.29
2022-12-29T07:22:30.966Z,87.91
2022-12-29T07:23:36.211Z,88.01
2022-12-29T07:24:37.744Z,87.92
2022-12-29T07:25:42.394Z,87.72
2022-12-29T07:26:43.989Z,87.55
2022-12-29T07:27:47.856Z,87.64
2022-12-29T07:28:49.513Z,87.79
2022-12-29T07:29:52.006Z,87.51
2022-12-29T07:30:53.648Z,87.51
2022-12-29T07:31:56.202Z,87.82
2022-12-29T07:32:57.939Z,87.27
2022-12-29T07:34:00.549Z,87.51
2022-12-29T07:35:02.541Z,87.50
2022-12-29T07:36:05.627Z,86.76
2022-12-29T07:37:07.493Z,86.46
2022-12-29T07:38:10.004Z,87.00
2022-12-29T07:39:12.720Z,86.98
2022-12-29T07:40:15.902Z,86.61
2022-12-29T07:41:17.569Z,86.37
2022-12-29T07:42:20.034Z,85.77
2022-12-29T07:43:22.957Z,86.23
2022-12-29T07:44:25.501Z,86.16
2022-12-29T07:45:27.005Z,85.63
2022-12-29T07:46:55.694Z,85.20
2022-12-29T07:47:51.919Z,85.21
2022-12-29T07:48:53.414Z,85.19
2022-12-29T07:49:55.950Z,85.19
2022-12-29T07:50:58.376Z,85.16
2022-12-29T07:52:00.035Z,84.74
2022-12-29T07:53:02.539Z,84.30
2022-12-29T07:54:04.387Z,84.28
2022-12-29T07:55:08.088Z,84.31
2022-12-29T07:56:09.639Z,84.25
2022-12-29T07:57:12.165Z,84.99
2022-12-29T07:58:13.790Z,84.82
2022-12-29T07:59:17.668Z,84.82
2022-12-29T08:00:20.601Z,85.49
2022-12-29T08:01:24.317Z,85.49
2022-12-29T08:02:27.549Z,85.19
2022-12-29T08:03:29.484Z,84.98
2022-12-29T08:04:32.103Z,85.26
2022-12-29T08:05:35.198Z,85.13
2022-12-29T08:06:38.744Z,84.61
2022-12-29T08:07:40.412Z,84.35
2022-12-29T08:08:42.999Z,84.13
2022-12-29T08:09:44.726Z,83.79
2022-12-29T08:10:47.232Z,83.88
2022-12-29T08:11:48.832Z,83.67
2022-12-29T08:12:51.381Z,83.25
2022-12-29T08:13:53.140Z,83.16
2022-12-29T08:14:57.073Z,82.77
2022-12-29T08:15:59.884Z,82.30
2022-12-29T08:17:02.389Z,81.46
2022-12-29T08:18:04.179Z,82.19
2022-12-29T08:19:06.891Z,81.86
2022-12-29T08:20:10.603Z,82.04
2022-12-29T08:21:12.083Z,81.35
2022-12-29T08:22:16.229Z,81.85
2022-12-29T08:23:17.764Z,81.99
2022-12-29T08:24:20.238Z,81.69
2022-12-29T08:25:22.177Z,81.93
2022-12-29T08:26:24.873Z,81.70
2022-12-29T08:27:26.425Z,81.95
2022-12-29T08:28:29.454Z,81.73
2022-12-29T08:29:30.939Z,81.83
2022-12-29T08:30:34.815Z,81.96
2022-12-29T08:31:36.450Z,81.76
2022-12-29T08:32:38.987Z,81.67
2022-12-29T08:33:40.512Z,81.42
2022-12-29T08:34:43.011Z,81.59
2022-12-29T08:35:44.594Z,82.04
2022-12-29T08:36:47.025Z,81.57
2022-12-29T08:37:48.531Z,81.44
2022-12-29T08:38:50.966Z,81.77
2022-12-29T08:39:52.663Z,81.48
2022-12-29T08:40:55.114Z,81.31
2022-12-29T08:41:56.779Z,81.50
2022-12-29T08:42:59.228Z,81.46
2022-12-29T08:44:01.056Z,81.23
2022-12-29T08:45:03.645Z,81.20
2022-12-29T08:46:07.436Z,81.20
2022-12-29T08:47:11.831Z,81.57
2022-12-29T08:48:13.369Z,81.46
2022-12-29T08:49:15.963Z,81.20
2022-12-29T08:50:17.748Z,81.34
2022-12-29T08:51:24.513Z,81.06
2022-12-29T08:52:27.542Z,80.60
2022-12-29T08:53:29.130Z,80.74
2022-12-29T08:54:31.581Z,80.82
2022-12-29T08:55:34.055Z,80.38
2022-12-29T08:56:36.522Z,80.06
2022-12-29T08:57:38.086Z,80.06
2022-12-29T08:58:40.618Z,79.65
2022-12-29T08:59:42.109Z,79.84
2022-12-29T09:00:44.561Z,79.92
2022-12-29T09:01:48.407Z,79.56
2022-12-29T09:02:50.190Z,79.71
2022-12-29T09:05:15.277Z,79.22
2022-12-29T09:06:18.463Z,79.40
2022-12-29T09:07:20.954Z,78.99
2022-12-29T09:08:26.195Z,79.46
2022-12-29T09:09:28.866Z,79.17
2022-12-29T09:10:30.369Z,78.69
2022-12-29T09:11:32.803Z,78.56
2022-12-29T09:12:36.639Z,78.09
2022-12-29T09:13:39.662Z,78.06
2022-12-29T09:14:41.220Z,78.12
2022-12-29T09:15:43.949Z,77.78
2022-12-29T09:17:05.275Z,78.02
2022-12-29T09:18:08.237Z,77.56
2022-12-29T09:19:10.666Z,77.40
2022-12-29T09:20:13.514Z,76.96
2022-12-29T09:21:16.034Z,77.59
2022-12-29T09:22:17.532Z,77.63
2022-12-29T09:23:19.960Z,77.54
2022-12-29T09:24:21.467Z,78.04
2022-12-29T09:25:25.312Z,78.73
2022-12-29T09:26:30.045Z,78.20
2022-12-29T09:27:31.916Z,78.26
2022-12-29T09:28:34.328Z,78.08
2022-12-29T09:29:35.808Z,77.95
2022-12-29T09:30:38.249Z,77.86
2022-12-29T09:31:39.756Z,78.33
2022-12-29T09:32:45.240Z,78.35
2022-12-29T09:33:47.984Z,78.94
2022-12-29T09:34:49.637Z,78.44
2022-12-29T09:35:53.731Z,78.50
2022-12-29T09:36:57.092Z,77.93
2022-12-29T09:37:58.718Z,77.67
2022-12-29T09:39:01.186Z,77.82
2022-12-29T09:40:03.029Z,77.43
2022-12-29T09:41:13.184Z,77.46
2022-12-29T09:42:20.733Z,78.22
2022-12-29T09:43:34.721Z,77.70
2022-12-29T09:44:53.657Z,77.22
2022-12-29T09:46:05.617Z,77.51
2022-12-29T09:47:12.964Z,77.32
2022-12-29T09:48:20.872Z,77.11
2022-12-29T09:49:29.451Z,77.16
2022-12-29T09:50:32.930Z,77.56
2022-12-29T09:51:39.494Z,77.90
2022-12-29T09:52:47.046Z,77.42
2022-12-29T09:53:54.142Z,76.95
2022-12-29T09:55:03.180Z,76.60
2022-12-29T09:56:14.673Z,77.37
2022-12-29T09:57:21.743Z,76.77
2022-12-29T09:58:30.969Z,76.72
2022-12-29T09:59:41.641Z,77.22
2022-12-29T10:00:55.353Z,77.06
2022-12-29T10:02:06.879Z,77.13
2022-12-29T10:03:18.946Z,77.23
2022-12-29T10:04:22.753Z,76.57
2022-12-29T10:05:33.564Z,77.53
2022-12-29T10:07:19.462Z,77.86
2022-12-29T10:08:17.642Z,77.35
2022-12-29T10:09:27.493Z,76.46
2022-12-29T10:10:38.283Z,76.13
2022-12-29T10:11:54.663Z,75.55
2022-12-29T10:13:09.633Z,75.37
2022-12-29T10:14:30.268Z,74.91
2022-12-29T10:15:41.835Z,75.26
2022-12-29T10:16:54.199Z,74.94
2022-12-29T10:18:05.909Z,74.85
2022-12-29T10:19:32.782Z,74.50
2022-12-29T10:20:44.481Z,75.55
2022-12-29T10:21:59.562Z,76.89
2022-12-29T10:23:24.534Z,76.50
2022-12-29T10:24:30.621Z,76.18
2022-12-29T10:25:38.931Z,75.82
2022-12-29T10:26:42.205Z,75.17
2022-12-29T10:27:48.951Z,75.26
2022-12-29T10:28:54.163Z,75.38
2022-12-29T10:29:57.956Z,75.26
2022-12-29T10:31:08.476Z,75.56
2022-12-29T10:32:19.283Z,75.17
2022-12-29T10:33:24.729Z,74.93
2022-12-29T10:34:34.354Z,75.15
2022-12-29T10:35:40.121Z,75.45
2022-12-29T10:36:48.360Z,76.00
2022-12-29T10:37:57.583Z,76.32
2022-12-29T10:39:06.763Z,75.75
2022-12-29T10:40:21.495Z,75.80
2022-12-29T10:41:28.662Z,75.76
2022-12-29T10:42:37.852Z,75.03
2022-12-29T10:43:47.696Z,75.10
2022-12-29T10:44:50.475Z,75.08
2022-12-29T10:45:57.107Z,74.70
2022-12-29T10:47:05.712Z,74.84
2022-12-29T10:48:23.942Z,74.65
2022-12-29T10:49:34.154Z,74.67
2022-12-29T10:50:35.984Z,75.01
2022-12-29T10:51:41.293Z,74.94
2022-12-29T10:52:43.084Z,75.68
2022-12-29T10:53:49.149Z,76.44
2022-12-29T10:54:55.573Z,76.00
2022-12-29T10:55:58.284Z,75.71
2022-12-29T10:57:03.765Z,75.91
2022-12-29T10:58:09.101Z,76.21
2022-12-29T10:59:18.254Z,75.85
2022-12-29T11:00:23.402Z,76.23
2022-12-29T11:01:33.517Z,76.27
2022-12-29T11:02:55.609Z,75.89
2022-12-29T11:04:05.401Z,76.20
2022-12-29T11:05:17.840Z,76.84
2022-12-29T11:06:26.090Z,75.98
2022-12-29T11:07:28.722Z,75.13
2022-12-29T11:08:45.290Z,74.68
2022-12-29T11:09:48.237Z,75.18
2022-12-29T11:10:59.701Z,74.39
2022-12-29T11:12:02.183Z,74.98
2022-12-29T11:13:12.360Z,76.05
2022-12-29T11:14:16.024Z,75.97
2022-12-29T11:15:18.752Z,75.83
2022-12-29T11:16:32.532Z,75.75
2022-12-29T11:17:44.448Z,76.57
2022-12-29T11:18:48.432Z,75.63
2022-12-29T11:19:49.927Z,75.88
2022-12-29T11:20:57.207Z,76.85
2022-12-29T11:22:15.186Z,76.25
2022-12-29T11:23:40.005Z,75.63
2022-12-29T11:24:45.792Z,75.22
2022-12-29T11:25:48.472Z,74.52
2022-12-29T11:26:53.910Z,74.35
2022-12-29T11:28:01.539Z,74.31
2022-12-29T11:29:23.840Z,73.98
2022-12-29T11:30:27.654Z,74.66
2022-12-29T11:31:30.112Z,75.46
2022-12-29T11:32:31.669Z,75.33
2022-12-29T11:33:36.213Z,75.45
2022-12-29T11:34:38.681Z,75.21
2022-12-29T11:35:43.049Z,75.44
2022-12-29T11:36:47.525Z,74.49
2022-12-29T11:37:59.765Z,74.81
2022-12-29T11:39:02.820Z,75.02
2022-12-29T11:40:09.061Z,75.02
2022-12-29T11:41:15.206Z,74.99
2022-12-29T11:42:19.457Z,75.06
2022-12-29T11:43:28.429Z,74.97
2022-12-29T11:44:37.460Z,74.40
2022-12-29T11:45:48.208Z,74.60
2022-12-29T11:46:52.006Z,74.99
2022-12-29T11:47:56.651Z,75.05
2022-12-29T11:49:01.538Z,74.46
2022-12-29T11:50:06.909Z,73.66
2022-12-29T11:51:09.369Z,73.74
2022-12-29T11:52:14.730Z,73.71
2022-12-29T11:53:21.047Z,73.55
2022-12-29T11:54:27.418Z,74.01
2022-12-29T11:55:31.201Z,74.13
2022-12-29T11:56:40.509Z,73.30
2022-12-29T11:57:44.995Z,71.30
2022-12-29T11:58:50.558Z,69.48
2022-12-29T11:59:53.081Z,66.94
2022-12-29T12:00:56.116Z,65.34
2022-12-29T12:01:59.708Z,63.21
2022-12-29T12:03:05.903Z,62.09
2022-12-29T12:04:13.104Z,61.83
2022-12-29T12:05:31.740Z,61.69
2022-12-29T12:06:40.708Z,61.81
2022-12-29T12:07:47.067Z,62.79
2022-12-29T12:08:53.751Z,64.83
2022-12-29T12:10:06.607Z,65.94
2022-12-29T12:11:14.300Z,67.71
2022-12-29T12:12:23.833Z,68.06
2022-12-29T12:13:32.594Z,68.45
2022-12-29T12:14:40.464Z,68.43
2022-12-29T12:15:52.783Z,68.81
2022-12-29T12:17:04.241Z,69.32
2022-12-29T12:18:12.935Z,69.83
2022-12-29T12:19:26.342Z,70.49
2022-12-29T12:20:39.236Z,70.76
2022-12-29T12:21:46.020Z,71.35
2022-12-29T12:22:55.577Z,71.67
2022-12-29T12:24:39.694Z,71.33
2022-12-29T12:25:49.018Z,72.87
2022-12-29T12:27:00.389Z,72.12
2022-12-29T12:28:10.738Z,72.72
2022-12-29T12:29:18.111Z,73.19
2022-12-29T12:30:22.991Z,71.68
2022-12-29T12:31:46.855Z,71.85
2022-12-29T12:32:53.575Z,72.14
2022-12-29T12:34:01.032Z,71.58
2022-12-29T12:35:02.853Z,71.57
2022-12-29T12:36:23.286Z,72.10
2022-12-29T12:37:59.207Z,73.45
2022-12-29T12:39:10.763Z,73.18
2022-12-29T12:40:36.727Z,72.96
2022-12-29T12:41:49.144Z,73.01
2022-12-29T12:43:07.303Z,73.84
2022-12-29T12:44:20.612Z,74.41
2022-12-29T12:45:41.397Z,74.67
2022-12-29T12:47:12.818Z,75.01
2022-12-29T12:48:35.652Z,75.27
2022-12-29T12:49:59.255Z,75.23
2022-12-29T12:51:12.951Z,75.26
2022-12-29T12:52:21.339Z,76.22
2022-12-29T12:53:52.226Z,76.26
2022-12-29T12:55:15.964Z,75.39
2022-12-29T12:56:38.680Z,75.60
2022-12-29T12:57:53.696Z,75.61
2022-12-29T12:59:09.832Z,76.42
2022-12-29T13:00:13.647Z,75.92
2022-12-29T13:01:31.946Z,75.09
2022-12-29T13:02:43.485Z,75.65
2022-12-29T13:03:56.580Z,74.30
2022-12-29T13:05:14.776Z,74.02
2022-12-29T13:06:28.613Z,73.65
2022-12-29T13:07:45.593Z,73.46
2022-12-29T13:09:04.523Z,75.10
2022-12-29T13:10:27.012Z,76.18
2022-12-29T13:11:38.658Z,74.93
2022-12-29T13:12:47.571Z,74.25
2022-12-29T13:14:14.162Z,74.11
2022-12-29T13:15:26.817Z,74.41
2022-12-29T13:16:39.148Z,74.03
2022-12-29T13:17:47.158Z,72.85
2022-12-29T13:18:57.963Z,73.43
2022-12-29T13:20:04.037Z,73.63
2022-12-29T13:21:14.813Z,73.88
2022-12-29T13:22:21.483Z,73.94
2022-12-29T13:23:32.376Z,73.65
2022-12-29T13:24:42.120Z,73.83
2022-12-29T13:25:51.216Z,73.71
2022-12-29T13:26:58.817Z,74.16
2022-12-29T13:28:07.390Z,74.92
2022-12-29T13:29:17.411Z,75.71
2022-12-29T13:30:22.770Z,75.66
2022-12-29T13:31:34.549Z,77.17
2022-12-29T13:32:51.899Z,76.49
2022-12-29T13:34:01.735Z,76.70
2022-12-29T13:35:20.668Z,77.05
2022-12-29T13:36:28.991Z,76.70
2022-12-29T13:37:34.951Z,76.62
2022-12-29T13:38:41.242Z,76.39
2022-12-29T13:39:48.827Z,75.52
2022-12-29T13:40:55.462Z,76.37
2022-12-29T13:41:59.083Z,76.20
2022-12-29T13:43:03.719Z,76.84
2022-12-29T13:44:08.094Z,77.00
2022-12-29T13:45:16.759Z,77.00
2022-12-29T13:46:23.145Z,76.96
2022-12-29T13:47:31.229Z,76.82
2022-12-29T13:48:41.504Z,77.07
2022-12-29T13:49:44.658Z,76.71
2022-12-29T13:51:01.781Z,76.20
2022-12-29T13:52:15.023Z,76.85
2022-12-29T13:53:23.301Z,76.25
2022-12-29T13:54:35.794Z,76.14
2022-12-29T13:55:47.406Z,76.05
2022-12-29T13:56:56.331Z,75.70
2022-12-29T13:58:05.798Z,74.96
2022-12-29T13:59:19.311Z,76.31
2022-12-29T14:00:22.116Z,77.92
2022-12-29T14:01:32.104Z,78.30
2022-12-29T14:02:44.797Z,77.53
2022-12-29T14:03:51.406Z,77.56
2022-12-29T14:04:59.148Z,77.91
2022-12-29T14:06:14.231Z,77.45
2022-12-29T14:07:19.771Z,76.98
2022-12-29T14:08:21.311Z,76.21
2022-12-29T14:09:47.343Z,76.25
2022-12-29T14:10:53.322Z,76.00
2022-12-29T14:11:55.087Z,76.27
2022-12-29T14:13:05.145Z,75.74
2022-12-29T14:14:17.731Z,75.13
2022-12-29T14:15:23.679Z,74.90
2022-12-29T14:16:32.880Z,75.15
2022-12-29T14:17:35.535Z,75.34
2022-12-29T14:18:45.575Z,75.55
2022-12-29T14:19:53.223Z,75.28